Terminal Aerodrome Forecast
Issued by NWS

Home | Current Version | Previous Version | Text Only | Print | Product List | Glossary On
Versions: 1 2 3 4 5 6 7 8 9 10 11 12
000
FTUS43 KILX 011733
TAFDEC
TAF
KDEC 011733Z 0118/0218 VRB05KT P6SM BKN250
     FM020000 20005KT P6SM SCT250
     FM021400 22008KT P6SM BKN250=

USA.gov is the U.S. government's official web portal to all federal, state and local government web resources and services.